首页
METAR-TAF:

METAR-TAF

机场 :

图森, 亞利桑那州, 美国

纬度: 32-08-32N, 经度: 111-10-28W, 海拔: 737米

当前天气观测

该预报发布于48分钟前的00:55 UTC
风速9节,风向西
温度 30°C
湿度 7%
气压 1010 hPa
能見度: 16.1公里
天空无云

METAR: KRYN 250055Z 27009KT 10SM CLR 30/M09 A2983

时间: 18:43 (01:43 UTC)


TAF: 丢失

超过4000个机场的气象观测和天气预报(METAR&TAF报告)。

可查询的气象台以黄色和红色小点在地图上表示。

将鼠标移到小点上方,可查看气象台名称。

然后点击查看天气观测和预报。

如需切换地图:点击带黑十字的绿色按钮放大地图;点击带横线的绿色按钮缩小地图;或者点击绿色箭头查看邻近地区的地图。


METAR-TAF: